createdAt,value
2023-04-25T00:00:36.575Z,8.3970
2023-04-25T00:01:37.713Z,8.3580
2023-04-25T00:02:38.997Z,8.3181
2023-04-25T00:03:40.442Z,8.2694
2023-04-25T00:04:41.977Z,8.2619
2023-04-25T00:05:43.304Z,8.4039
2023-04-25T00:06:44.401Z,8.3043
2023-04-25T00:07:45.658Z,8.4047
2023-04-25T00:08:46.825Z,8.3607
2023-04-25T00:09:47.992Z,8.3448
2023-04-25T00:10:49.179Z,8.3772
2023-04-25T00:11:50.354Z,8.3368
2023-04-25T00:12:51.507Z,8.2743
2023-04-25T00:13:52.710Z,8.2277
2023-04-25T00:14:53.848Z,8.2639
2023-04-25T00:15:55.044Z,8.2649
2023-04-25T00:16:56.195Z,8.2399
2023-04-25T00:17:57.381Z,8.2305
2023-04-25T00:18:59.028Z,8.2198
2023-04-25T00:20:00.196Z,8.1452
2023-04-25T00:21:01.353Z,8.1549
2023-04-25T00:22:02.742Z,8.1355
2023-04-25T00:24:04.094Z,8.1172
2023-04-25T00:25:05.245Z,8.0662
2023-04-25T00:26:06.745Z,7.9820
2023-04-25T00:27:08.322Z,8.0772
2023-04-25T00:28:09.523Z,8.0550
2023-04-25T00:29:10.708Z,8.0338
2023-04-25T00:30:11.906Z,7.9565
2023-04-25T00:31:13.139Z,8.0574
2023-04-25T00:32:14.321Z,8.0208
2023-04-25T00:33:15.926Z,8.0423
2023-04-25T00:34:17.305Z,7.9565
2023-04-25T00:35:18.502Z,7.8741
2023-04-25T00:36:19.668Z,7.9435
2023-04-25T00:37:20.878Z,7.8768
2023-04-25T00:38:22.075Z,7.9038
2023-04-25T00:39:23.582Z,7.8400
2023-04-25T00:40:24.774Z,7.9336
2023-04-25T00:41:25.951Z,7.9979
2023-04-25T00:42:27.176Z,7.8089
2023-04-25T00:43:28.337Z,7.6608
2023-04-25T00:44:29.543Z,7.6190
2023-04-25T00:45:30.738Z,7.5676
2023-04-25T00:46:31.954Z,7.5306
2023-04-25T00:47:33.246Z,7.5159
2023-04-25T00:48:34.494Z,7.5188
2023-04-25T00:49:35.725Z,7.5434
2023-04-25T00:50:43.992Z,7.4262
2023-04-25T00:51:38.268Z,7.4554
2023-04-25T00:52:39.468Z,7.4058
2023-04-25T00:53:41.019Z,7.3951
2023-04-25T00:54:42.209Z,7.4608
2023-04-25T00:55:43.782Z,7.3317
2023-04-25T00:56:44.976Z,7.2453
2023-04-25T00:57:47.546Z,7.3185
2023-04-25T00:58:48.768Z,7.3760
2023-04-25T00:59:49.939Z,7.4278
2023-04-25T01:00:51.260Z,7.4233
2023-04-25T01:01:52.516Z,7.3059
2023-04-25T01:02:53.786Z,7.3059
2023-04-25T01:03:55.442Z,7.2926
2023-04-25T01:05:58.682Z,7.3725
2023-04-25T01:06:59.879Z,7.1511
2023-04-25T01:08:01.042Z,7.1565
2023-04-25T01:09:02.259Z,7.1426
2023-04-25T01:10:03.433Z,7.1112
2023-04-25T01:11:04.630Z,7.1286
2023-04-25T01:12:05.816Z,7.1393
2023-04-25T01:13:07.020Z,7.1539
2023-04-25T01:14:08.218Z,7.1664
2023-04-25T01:15:09.460Z,7.0788
2023-04-25T01:16:10.651Z,7.0833
2023-04-25T01:17:11.825Z,7.0566
2023-04-25T01:18:13.211Z,7.1765
2023-04-25T01:19:14.408Z,7.1075
2023-04-25T01:20:15.613Z,7.0989
2023-04-25T01:21:16.829Z,7.1020
2023-04-25T01:22:18.054Z,7.0259
2023-04-25T01:23:19.170Z,7.0052
2023-04-25T01:24:20.348Z,6.9791
2023-04-25T01:25:21.561Z,7.0072
2023-04-25T01:26:22.811Z,6.9759
2023-04-25T01:27:25.357Z,7.0039
2023-04-25T01:28:26.552Z,7.0855
2023-04-25T01:29:27.747Z,7.1674
2023-04-25T01:30:28.968Z,7.2169
2023-04-25T01:32:32.775Z,7.1999
2023-04-25T01:33:33.936Z,7.2753
2023-04-25T01:34:35.174Z,7.3381
2023-04-25T01:35:36.336Z,7.3757
2023-04-25T01:36:37.570Z,7.3155
2023-04-25T01:37:38.736Z,7.3216
2023-04-25T01:38:39.923Z,7.2773
2023-04-25T01:39:41.138Z,7.3001
2023-04-25T01:40:42.353Z,7.3009
2023-04-25T01:41:43.549Z,7.2406
2023-04-25T01:42:44.746Z,7.2363
2023-04-25T01:43:45.949Z,7.1847
2023-04-25T01:44:47.182Z,7.1740
2023-04-25T01:45:48.457Z,7.2219
2023-04-25T01:46:49.604Z,7.0706
2023-04-25T01:47:51.176Z,7.0226
2023-04-25T01:48:52.352Z,7.1855
2023-04-25T01:49:53.535Z,7.2199
2023-04-25T01:50:54.763Z,7.2272
2023-04-25T01:51:55.959Z,7.3213
2023-04-25T01:52:57.180Z,7.3135
2023-04-25T01:54:00.816Z,7.4175
2023-04-25T01:54:58.599Z,7.3875
2023-04-25T01:55:59.787Z,7.4657
2023-04-25T01:57:01.009Z,7.4558
2023-04-25T01:58:02.207Z,7.4178
2023-04-25T01:59:03.384Z,7.4339
2023-04-25T02:00:04.597Z,7.3667
2023-04-25T02:01:05.801Z,7.0643
2023-04-25T02:02:07.014Z,7.2249
2023-04-25T02:03:08.336Z,7.4069
2023-04-25T02:04:09.817Z,7.2572
2023-04-25T02:06:13.676Z,7.1815
2023-04-25T02:07:14.855Z,7.3815
2023-04-25T02:08:16.062Z,7.3210
2023-04-25T02:09:18.706Z,7.4168
2023-04-25T02:10:19.888Z,7.3988
2023-04-25T02:11:21.083Z,7.2158
2023-04-25T02:12:22.309Z,7.2203
2023-04-25T02:13:23.521Z,7.1338
2023-04-25T02:14:24.718Z,6.9864
2023-04-25T02:15:25.911Z,6.9563
2023-04-25T02:16:27.163Z,7.1366
2023-04-25T02:17:28.391Z,7.0689
2023-04-25T02:18:29.991Z,6.8781
2023-04-25T02:19:32.082Z,6.8302
2023-04-25T02:20:33.271Z,6.7822
2023-04-25T02:21:34.466Z,7.0172
2023-04-25T02:22:35.683Z,7.1160
2023-04-25T02:23:36.857Z,6.8044
2023-04-25T02:24:38.052Z,6.5804
2023-04-25T02:25:39.254Z,6.5070
2023-04-25T02:26:40.452Z,6.4734
2023-04-25T02:27:41.632Z,6.8680
2023-04-25T02:28:42.857Z,7.2145
2023-04-25T02:29:44.064Z,7.2810
2023-04-25T02:30:45.242Z,7.2667
2023-04-25T02:31:46.562Z,7.2505
2023-04-25T02:32:47.868Z,7.1671
2023-04-25T02:33:49.168Z,7.1041
2023-04-25T02:34:50.448Z,7.0359
2023-04-25T02:35:51.589Z,6.9787
2023-04-25T02:36:52.829Z,7.0243
2023-04-25T02:37:54.023Z,7.0345
2023-04-25T02:38:55.204Z,6.9676
2023-04-25T02:39:56.412Z,6.9010
2023-04-25T02:40:57.587Z,6.9685
2023-04-25T02:41:58.810Z,7.0296
2023-04-25T02:43:00.001Z,7.0369
2023-04-25T02:44:01.208Z,6.9434
2023-04-25T02:45:02.375Z,6.9073
2023-04-25T02:46:03.582Z,6.8977
2023-04-25T02:47:04.885Z,6.8217
2023-04-25T02:48:06.152Z,6.8003
2023-04-25T02:49:07.708Z,6.8246
2023-04-25T02:50:08.933Z,6.8570
2023-04-25T02:51:10.115Z,6.8686
2023-04-25T02:52:11.326Z,6.9175
2023-04-25T02:53:12.513Z,6.9407
2023-04-25T02:54:13.714Z,6.9875
2023-04-25T02:55:14.941Z,7.0584
2023-04-25T02:56:16.132Z,7.0398
2023-04-25T02:57:17.332Z,7.0369
2023-04-25T02:58:18.559Z,7.0116
2023-04-25T02:59:19.761Z,7.0032
2023-04-25T03:00:20.223Z,7.0287
2023-04-25T03:01:21.627Z,7.0931
2023-04-25T03:02:22.927Z,7.0230
2023-04-25T03:03:24.208Z,6.9156
2023-04-25T03:04:25.461Z,6.9230
2023-04-25T03:05:26.628Z,7.0351
2023-04-25T03:06:27.832Z,7.0516
2023-04-25T03:07:29.057Z,6.9447
2023-04-25T03:08:30.247Z,6.8906
2023-04-25T03:09:31.468Z,6.8396
2023-04-25T03:10:32.676Z,6.8193
2023-04-25T03:11:33.879Z,6.6292
2023-04-25T03:12:35.064Z,6.6416
2023-04-25T03:13:36.434Z,6.6589
2023-04-25T03:14:37.640Z,6.5014
2023-04-25T03:15:38.809Z,6.4035
2023-04-25T03:16:40.141Z,6.3655
2023-04-25T03:17:41.377Z,6.2505
2023-04-25T03:18:42.556Z,6.3600
2023-04-25T03:19:43.897Z,6.2141
2023-04-25T03:20:45.076Z,6.5163
2023-04-25T03:21:46.294Z,6.5672
2023-04-25T03:22:47.516Z,6.4998
2023-04-25T03:23:48.929Z,6.4605
2023-04-25T03:24:50.239Z,6.3737
2023-04-25T03:25:51.485Z,6.2089
2023-04-25T03:26:52.701Z,5.9918
2023-04-25T03:27:53.893Z,5.7237
2023-04-25T03:28:55.102Z,5.4596
2023-04-25T03:29:56.273Z,5.9431
2023-04-25T03:30:57.521Z,6.1809
2023-04-25T03:31:58.725Z,6.2612
2023-04-25T03:32:59.954Z,6.1996
2023-04-25T03:34:01.168Z,5.9464
2023-04-25T03:35:02.409Z,5.9635
2023-04-25T03:36:03.542Z,5.9563
2023-04-25T03:37:04.771Z,5.9093
2023-04-25T03:38:05.959Z,5.8239
2023-04-25T03:39:07.149Z,5.7912
2023-04-25T03:40:08.383Z,5.7419
2023-04-25T03:41:09.809Z,5.7430
2023-04-25T03:42:11.010Z,5.6792
2023-04-25T03:43:12.194Z,5.7485
2023-04-25T03:44:13.429Z,5.8206
2023-04-25T03:45:14.656Z,5.7915
2023-04-25T03:46:16.035Z,5.7805
2023-04-25T03:47:17.228Z,5.8294
2023-04-25T03:48:18.416Z,5.8607
2023-04-25T03:49:19.834Z,5.8368
2023-04-25T03:50:21.049Z,5.8109
2023-04-25T03:51:22.271Z,5.7741
2023-04-25T03:52:23.455Z,5.8371
2023-04-25T03:53:24.748Z,5.8614
2023-04-25T03:54:25.896Z,5.6418
2023-04-25T03:55:27.093Z,5.4879
2023-04-25T03:56:28.300Z,5.2886
2023-04-25T03:57:29.514Z,5.0503
2023-04-25T03:58:30.683Z,5.2116
2023-04-25T03:59:31.879Z,5.2653
2023-04-25T04:00:33.091Z,5.2279
2023-04-25T04:01:34.284Z,5.3545
2023-04-25T04:02:35.624Z,5.1709
2023-04-25T04:03:37.232Z,5.3742
2023-04-25T04:04:38.836Z,5.6803
2023-04-25T04:05:40.235Z,5.7983
2023-04-25T04:06:41.377Z,5.8842
2023-04-25T04:07:42.597Z,5.8740
2023-04-25T04:08:43.808Z,5.7931
2023-04-25T04:09:45.053Z,5.8220
2023-04-25T04:10:46.276Z,5.5861
2023-04-25T04:11:47.445Z,5.4369
2023-04-25T04:12:48.642Z,5.2870
2023-04-25T04:13:49.989Z,5.3891
2023-04-25T04:14:51.375Z,5.8035
2023-04-25T04:15:52.700Z,6.0872
2023-04-25T04:16:53.869Z,6.0548
2023-04-25T04:17:55.146Z,5.8087
2023-04-25T04:18:56.341Z,6.0242
2023-04-25T04:19:57.576Z,6.1847
2023-04-25T04:20:58.763Z,6.3079
2023-04-25T04:21:59.942Z,6.2505
2023-04-25T04:23:01.152Z,6.5160
2023-04-25T04:24:02.354Z,6.7287
2023-04-25T04:25:03.544Z,6.9225
2023-04-25T04:26:04.753Z,7.3394
2023-04-25T04:27:05.969Z,7.4242
2023-04-25T04:28:07.196Z,7.1405
2023-04-25T04:29:08.437Z,7.1300
2023-04-25T04:30:09.653Z,6.8886
2023-04-25T04:31:10.871Z,6.7673
2023-04-25T04:32:12.010Z,6.6828
2023-04-25T04:33:13.263Z,6.5799
2023-04-25T04:34:14.443Z,6.5672
2023-04-25T04:35:15.665Z,6.6333
2023-04-25T04:36:16.976Z,6.5003
2023-04-25T04:37:18.156Z,6.3405
2023-04-25T04:38:19.420Z,6.3605
2023-04-25T04:39:20.605Z,6.5689
2023-04-25T04:40:21.848Z,6.9594
2023-04-25T04:41:23.020Z,6.9090
2023-04-25T04:42:24.238Z,6.9692
2023-04-25T04:43:25.407Z,6.9390
2023-04-25T04:44:26.607Z,7.1057
2023-04-25T04:45:27.817Z,7.2381
2023-04-25T04:46:29.103Z,7.2722
2023-04-25T04:47:30.478Z,7.4545
2023-04-25T04:48:31.635Z,7.1803
2023-04-25T04:49:32.894Z,7.0153
2023-04-25T04:50:34.054Z,7.1195
2023-04-25T04:51:35.256Z,6.9982
2023-04-25T04:52:36.481Z,7.2319
2023-04-25T04:53:37.638Z,7.2663
2023-04-25T04:54:38.872Z,7.2330
2023-04-25T04:55:40.096Z,7.0252
2023-04-25T04:56:41.298Z,7.1341
2023-04-25T04:57:42.487Z,6.9831
2023-04-25T04:58:43.691Z,6.9791
2023-04-25T04:59:44.866Z,7.2001
2023-04-25T05:00:46.147Z,7.1077
2023-04-25T05:01:47.337Z,6.9833
2023-04-25T05:02:48.662Z,6.9626
2023-04-25T05:03:50.410Z,6.9348
2023-04-25T05:04:51.989Z,6.9536
2023-04-25T05:05:53.218Z,6.8564
2023-04-25T05:06:54.405Z,6.8700
2023-04-25T05:07:55.622Z,7.0006
2023-04-25T05:08:56.770Z,7.0450
2023-04-25T05:09:58.021Z,7.0106
2023-04-25T05:10:59.210Z,6.9962
2023-04-25T05:12:00.405Z,7.0188
2023-04-25T05:13:01.623Z,7.0007
2023-04-25T05:14:02.799Z,6.9775
2023-04-25T05:15:04.017Z,6.9938
2023-04-25T05:16:05.209Z,6.9761
2023-04-25T05:17:06.400Z,7.1396
2023-04-25T05:18:07.668Z,7.0596
2023-04-25T05:19:08.859Z,7.0650
2023-04-25T05:20:10.039Z,7.1930
2023-04-25T05:21:11.272Z,7.0045
2023-04-25T05:22:12.470Z,6.8645
2023-04-25T05:23:13.670Z,6.7466
2023-04-25T05:24:14.856Z,6.7266
2023-04-25T05:25:16.074Z,6.7970
2023-04-25T05:26:17.276Z,6.8034
2023-04-25T05:27:18.482Z,6.7349
2023-04-25T05:28:19.679Z,6.7976
2023-04-25T05:29:20.885Z,6.8868
2023-04-25T05:30:22.166Z,7.1441
2023-04-25T05:31:23.479Z,7.0680
2023-04-25T05:32:24.850Z,6.9348
2023-04-25T05:33:26.080Z,6.8835
2023-04-25T05:34:27.260Z,6.8798
2023-04-25T05:35:28.514Z,6.8675
2023-04-25T05:36:29.700Z,6.9404
2023-04-25T05:37:30.898Z,6.8985
2023-04-25T05:38:34.485Z,7.0866
2023-04-25T05:39:32.432Z,6.9860
2023-04-25T05:40:33.622Z,7.1476
2023-04-25T05:41:34.831Z,7.2293
2023-04-25T05:42:36.014Z,7.1752
2023-04-25T05:43:37.198Z,7.3849
2023-04-25T05:44:38.440Z,7.2981
2023-04-25T05:45:39.666Z,7.2341
2023-04-25T05:46:40.926Z,7.3036
2023-04-25T05:47:42.369Z,7.6839
2023-04-25T05:48:43.583Z,7.5937
2023-04-25T05:49:44.764Z,7.6400
2023-04-25T05:50:46.190Z,7.7569
2023-04-25T05:51:47.385Z,7.7778
2023-04-25T05:52:48.608Z,7.8595
2023-04-25T05:53:49.908Z,7.6636
2023-04-25T05:54:51.232Z,7.7464
2023-04-25T05:55:52.427Z,7.6301
2023-04-25T05:56:53.621Z,7.7608
2023-04-25T05:57:54.959Z,7.5573
2023-04-25T05:58:56.183Z,7.4826
2023-04-25T05:59:57.422Z,7.6173
2023-04-25T06:00:59.473Z,7.5357
2023-04-25T06:02:00.715Z,7.7951
2023-04-25T06:03:02.104Z,7.7403
2023-04-25T06:04:03.741Z,7.6309
2023-04-25T06:05:05.180Z,7.5164
2023-04-25T06:06:06.720Z,7.3837
2023-04-25T06:07:07.990Z,7.4017
2023-04-25T06:08:09.192Z,7.4603
2023-04-25T06:09:11.038Z,7.3942
2023-04-25T06:10:13.350Z,7.3631
2023-04-25T06:11:14.516Z,7.3644
2023-04-25T06:12:15.723Z,7.3934
2023-04-25T06:13:17.114Z,7.3901
2023-04-25T06:14:18.496Z,7.3859
2023-04-25T06:16:20.170Z,7.3506
2023-04-25T06:17:21.472Z,7.2857
2023-04-25T06:18:22.760Z,7.1960
2023-04-25T06:19:23.958Z,7.1399
2023-04-25T06:20:25.643Z,7.0994
2023-04-25T06:21:26.874Z,7.0128
2023-04-25T06:22:28.364Z,6.9002
2023-04-25T06:23:29.542Z,6.7514
2023-04-25T06:24:30.776Z,6.6479
2023-04-25T06:25:31.966Z,6.4554
2023-04-25T06:26:33.151Z,6.3646
2023-04-25T06:27:34.408Z,6.3193
2023-04-25T06:28:35.608Z,6.1941
2023-04-25T06:29:36.804Z,6.0246
2023-04-25T06:30:37.987Z,5.8608
2023-04-25T06:31:39.270Z,5.6883
2023-04-25T06:32:40.525Z,5.4978
2023-04-25T06:33:41.720Z,5.4928
2023-04-25T06:34:42.884Z,5.2744
2023-04-25T06:35:44.093Z,5.1466
2023-04-25T06:36:45.388Z,5.1079
2023-04-25T06:37:46.579Z,5.1167
2023-04-25T06:38:48.013Z,5.1554
2023-04-25T06:39:49.245Z,5.0465
2023-04-25T06:40:50.454Z,4.9829
2023-04-25T06:41:51.635Z,4.9476
2023-04-25T06:42:52.938Z,4.9661
2023-04-25T06:43:54.087Z,5.0096
2023-04-25T06:44:55.290Z,4.9790
2023-04-25T06:45:56.499Z,4.9579
2023-04-25T06:46:57.718Z,4.9326
2023-04-25T06:47:58.922Z,4.9483
2023-04-25T06:49:00.121Z,4.9835
2023-04-25T06:50:01.394Z,4.9582
2023-04-25T06:51:02.568Z,5.0085
2023-04-25T06:52:03.789Z,5.1210
2023-04-25T06:53:05.031Z,5.0484
2023-04-25T06:54:06.221Z,5.0775
2023-04-25T06:55:07.416Z,5.1112
2023-04-25T06:56:08.613Z,5.3194
2023-04-25T06:57:09.794Z,5.1656
2023-04-25T06:58:11.016Z,5.1470
2023-04-25T06:59:12.208Z,5.2675
2023-04-25T07:00:13.433Z,5.2174
2023-04-25T07:01:14.659Z,5.2259
2023-04-25T07:02:15.922Z,5.2061
2023-04-25T07:03:17.306Z,5.2942
2023-04-25T07:04:18.851Z,5.2446
2023-04-25T07:05:20.126Z,5.3319
2023-04-25T07:06:21.339Z,5.2890
2023-04-25T07:07:22.536Z,5.3022
2023-04-25T07:08:23.796Z,5.6755
2023-04-25T07:09:25.020Z,5.4351
2023-04-25T07:10:26.305Z,5.3814
2023-04-25T07:11:27.458Z,5.2933
2023-04-25T07:12:28.640Z,5.3809
2023-04-25T07:13:29.863Z,5.3247
2023-04-25T07:14:31.028Z,5.2724
2023-04-25T07:15:32.303Z,5.2642
2023-04-25T07:16:33.483Z,5.2991
2023-04-25T07:17:34.678Z,5.2693
2023-04-25T07:18:35.878Z,5.3864
2023-04-25T07:19:37.057Z,5.3833
2023-04-25T07:20:38.267Z,5.3503
2023-04-25T07:21:39.500Z,5.3236
2023-04-25T07:22:40.856Z,5.2818
2023-04-25T07:23:42.041Z,5.3297
2023-04-25T07:24:43.337Z,5.3057
2023-04-25T07:25:44.558Z,5.3271
2023-04-25T07:26:45.769Z,5.3470
2023-04-25T07:27:47.037Z,5.3586
2023-04-25T07:28:48.533Z,5.3453
2023-04-25T07:29:49.934Z,5.3340
2023-04-25T07:30:51.165Z,5.3560
2023-04-25T07:31:52.403Z,5.3404
2023-04-25T07:32:53.698Z,5.3641
2023-04-25T07:33:55.003Z,5.3035
2023-04-25T07:34:56.262Z,5.4240
2023-04-25T07:35:57.588Z,5.3384
2023-04-25T07:36:58.793Z,5.3106
2023-04-25T07:38:00.056Z,5.2881
2023-04-25T07:39:01.310Z,5.4062
2023-04-25T07:40:02.596Z,5.3396
2023-04-25T07:41:03.827Z,5.2506
2023-04-25T07:42:05.064Z,5.2916
2023-04-25T07:43:06.304Z,5.2947
2023-04-25T07:44:07.733Z,5.2578
2023-04-25T07:45:08.984Z,5.2675
2023-04-25T07:46:10.297Z,5.2859
2023-04-25T07:47:11.546Z,5.3150
2023-04-25T07:48:12.841Z,5.2887
2023-04-25T07:49:14.105Z,5.4155
2023-04-25T07:50:15.342Z,5.4623
2023-04-25T07:51:16.576Z,5.4233
2023-04-25T07:52:17.795Z,5.3959
2023-04-25T07:53:19.002Z,5.5688
2023-04-25T07:54:20.246Z,5.5638
2023-04-25T07:55:21.446Z,5.6627
2023-04-25T07:56:22.674Z,5.6126
2023-04-25T07:57:23.877Z,5.7614
2023-04-25T07:58:25.146Z,5.6767
2023-04-25T07:59:27.548Z,5.6899
2023-04-25T08:00:27.113Z,5.6882
2023-04-25T08:01:28.379Z,5.6891
2023-04-25T08:02:30.002Z,5.8291
2023-04-25T08:03:31.404Z,5.7958
2023-04-25T08:04:33.112Z,5.8471
2023-04-25T08:05:34.602Z,5.9021
2023-04-25T08:06:36.135Z,5.8230
2023-04-25T08:07:37.492Z,5.7849
2023-04-25T08:08:38.717Z,5.8330
2023-04-25T08:09:39.995Z,5.7936
2023-04-25T08:10:41.216Z,5.8346
2023-04-25T08:11:42.454Z,5.9967
2023-04-25T08:12:43.671Z,5.8949
2023-04-25T08:13:44.946Z,6.0323
2023-04-25T08:14:46.142Z,6.0713
2023-04-25T08:15:47.409Z,6.1618
2023-04-25T08:16:48.594Z,6.4238
2023-04-25T08:17:49.842Z,6.5231
2023-04-25T08:18:51.203Z,6.6189
2023-04-25T08:19:52.492Z,6.5136
2023-04-25T08:20:53.716Z,6.5584
2023-04-25T08:21:54.910Z,6.8666
2023-04-25T08:22:56.139Z,6.5930
2023-04-25T08:23:57.388Z,6.8375
2023-04-25T08:24:58.608Z,6.8777
2023-04-25T08:25:59.822Z,7.3257
2023-04-25T08:27:01.050Z,7.0533
2023-04-25T08:28:02.255Z,6.8254
2023-04-25T08:29:03.470Z,6.9040
2023-04-25T08:30:04.719Z,6.8708
2023-04-25T08:31:05.978Z,7.1163
2023-04-25T08:32:07.180Z,7.1308
2023-04-25T08:33:08.457Z,7.2676
2023-04-25T08:34:09.667Z,7.7139
2023-04-25T08:35:10.971Z,7.3183
2023-04-25T08:36:12.170Z,7.2755
2023-04-25T08:37:13.376Z,7.7442
2023-04-25T08:38:14.635Z,7.6619
2023-04-25T08:39:15.845Z,7.6623
2023-04-25T08:40:17.093Z,7.3375
2023-04-25T08:41:18.335Z,7.2585
2023-04-25T08:42:19.614Z,7.2065
2023-04-25T08:43:20.859Z,7.1229
2023-04-25T08:44:22.089Z,7.0706
2023-04-25T08:45:23.499Z,7.0826
2023-04-25T08:46:24.769Z,7.1614
2023-04-25T08:47:26.021Z,6.9085
2023-04-25T08:48:27.232Z,7.1317
2023-04-25T08:49:28.447Z,7.0334
2023-04-25T08:50:29.688Z,6.9487
2023-04-25T08:51:30.892Z,7.0460
2023-04-25T08:52:32.130Z,6.9575
2023-04-25T08:53:34.035Z,7.0232
2023-04-25T08:54:37.171Z,7.0807
2023-04-25T08:55:35.514Z,6.8635
2023-04-25T08:56:36.755Z,6.7706
2023-04-25T08:57:38.030Z,6.9459
2023-04-25T08:58:39.256Z,6.7467
2023-04-25T08:59:40.503Z,6.8832
2023-04-25T09:00:41.788Z,7.0436
2023-04-25T09:01:43.120Z,7.0936
2023-04-25T09:02:44.875Z,6.8886
2023-04-25T09:03:46.544Z,6.9396
2023-04-25T09:04:47.751Z,6.9808
2023-04-25T09:05:49.094Z,7.2764
2023-04-25T09:06:50.345Z,7.1710
2023-04-25T09:07:59.117Z,7.2572
2023-04-25T09:09:00.343Z,7.2159
2023-04-25T09:10:01.581Z,7.0890
2023-04-25T09:11:02.851Z,7.1771
2023-04-25T09:12:04.092Z,7.2260
2023-04-25T09:13:05.352Z,7.3607
2023-04-25T09:14:06.572Z,7.4793
2023-04-25T09:15:07.836Z,7.4131
2023-04-25T09:16:09.115Z,7.5458
2023-04-25T09:17:10.422Z,7.6355
2023-04-25T09:18:11.747Z,7.3136
2023-04-25T09:19:13.114Z,7.3865
2023-04-25T09:20:14.374Z,7.7233
2023-04-25T09:21:15.628Z,8.1776
2023-04-25T09:22:16.959Z,7.8512
2023-04-25T09:23:18.193Z,7.8417
2023-04-25T09:24:19.426Z,7.7432
2023-04-25T09:25:20.699Z,8.0951
2023-04-25T09:26:21.948Z,8.4370
2023-04-25T09:27:23.190Z,8.3585
2023-04-25T09:28:24.468Z,7.8598
2023-04-25T09:29:25.693Z,8.2515
2023-04-25T09:30:26.951Z,8.2239
2023-04-25T09:31:28.238Z,7.6209
2023-04-25T09:32:29.512Z,8.2688
2023-04-25T09:33:30.763Z,8.7724
2023-04-25T09:34:32.023Z,8.9747
2023-04-25T09:35:33.295Z,8.2489
2023-04-25T09:37:37.443Z,9.4031
2023-04-25T09:38:38.688Z,8.8379
2023-04-25T09:39:39.911Z,8.5833
2023-04-25T09:40:41.149Z,7.7676
2023-04-25T09:41:42.372Z,7.6281
2023-04-25T09:42:43.650Z,7.7143
2023-04-25T09:43:44.787Z,8.0813
2023-04-25T09:44:46.042Z,8.7872
2023-04-25T09:45:47.334Z,8.9428
2023-04-25T09:46:48.629Z,8.8393
2023-04-25T09:47:49.918Z,8.9823
2023-04-25T09:48:51.175Z,9.3830
2023-04-25T09:49:52.676Z,8.9356
2023-04-25T09:50:54.062Z,8.8852
2023-04-25T09:51:55.372Z,8.7320
2023-04-25T09:52:56.654Z,8.1455
2023-04-25T09:53:57.915Z,8.0089
2023-04-25T09:54:59.181Z,8.0825
2023-04-25T09:56:00.438Z,8.0352
2023-04-25T09:57:01.745Z,8.2016
2023-04-25T09:58:03.014Z,8.4290
2023-04-25T09:59:04.332Z,8.5641
2023-04-25T10:00:06.241Z,8.8313
2023-04-25T10:01:07.676Z,9.2714
2023-04-25T10:02:08.904Z,8.9914
2023-04-25T10:03:10.314Z,9.1452
2023-04-25T10:04:11.734Z,8.4429
2023-04-25T10:05:13.463Z,8.5701
2023-04-25T10:06:14.822Z,8.3610
2023-04-25T10:07:16.007Z,8.3745
2023-04-25T10:08:17.267Z,8.6015
2023-04-25T10:09:18.701Z,8.5249
2023-04-25T10:10:20.091Z,8.4894
2023-04-25T10:11:21.285Z,8.6881
2023-04-25T10:12:22.542Z,8.6394
2023-04-25T10:13:23.796Z,8.9246
2023-04-25T10:14:25.047Z,8.5798
2023-04-25T10:17:50.131Z,8.2588
2023-04-25T10:18:26.467Z,9.1898
2023-04-25T10:19:27.667Z,9.0555
2023-04-25T10:20:28.999Z,8.8962
2023-04-25T10:21:30.189Z,9.7714
2023-04-25T10:22:31.425Z,8.6601
2023-04-25T10:23:32.672Z,8.6860
2023-04-25T10:24:33.967Z,9.2886
2023-04-25T10:25:35.330Z,10.2290
2023-04-25T10:26:36.571Z,10.4618
2023-04-25T10:27:37.844Z,10.3975
2023-04-25T10:28:39.068Z,10.3809
2023-04-25T10:29:40.320Z,10.1753
2023-04-25T10:30:41.596Z,9.8993
2023-04-25T10:31:42.982Z,10.4338
2023-04-25T10:32:44.288Z,10.5931
2023-04-25T10:33:45.540Z,9.3666
2023-04-25T10:34:46.791Z,8.9733
2023-04-25T10:35:48.041Z,8.7248
2023-04-25T10:36:49.319Z,10.0206
2023-04-25T10:37:50.611Z,10.4623
2023-04-25T10:38:51.871Z,9.5341
2023-04-25T10:39:53.104Z,9.4581
2023-04-25T10:40:54.961Z,9.0366
2023-04-25T10:41:56.232Z,9.1467
2023-04-25T10:42:57.512Z,9.0786
2023-04-25T10:43:58.730Z,8.9699
2023-04-25T10:45:00.011Z,9.4271
2023-04-25T10:46:01.286Z,10.0490
2023-04-25T10:47:02.616Z,9.2217
2023-04-25T10:48:03.996Z,9.9725
2023-04-25T10:49:05.247Z,9.3701
2023-04-25T10:50:06.457Z,9.6362
2023-04-25T10:51:07.676Z,9.3720
2023-04-25T10:52:08.944Z,9.4480
2023-04-25T10:53:10.146Z,9.0149
2023-04-25T10:54:11.398Z,9.2064
2023-04-25T10:55:12.648Z,8.9317
2023-04-25T10:56:14.478Z,8.8541
2023-04-25T10:57:15.785Z,9.5416
2023-04-25T10:58:17.062Z,10.0636
2023-04-25T10:59:18.314Z,10.5347
2023-04-25T11:00:19.628Z,10.6577
2023-04-25T11:01:20.929Z,9.5848
2023-04-25T11:02:22.329Z,10.6198
2023-04-25T11:03:23.657Z,10.0009
2023-04-25T11:04:25.281Z,9.5691
2023-04-25T11:05:26.712Z,9.4629
2023-04-25T11:06:27.959Z,10.1024
2023-04-25T11:07:29.368Z,10.5119
2023-04-25T11:08:30.632Z,10.1508
2023-04-25T11:09:31.927Z,10.1885
2023-04-25T11:10:33.193Z,11.0725
2023-04-25T11:11:34.498Z,9.4694
2023-04-25T11:12:35.724Z,9.3910
2023-04-25T11:13:37.051Z,9.5853
2023-04-25T11:14:38.312Z,9.4757
2023-04-25T11:15:39.548Z,10.1836
2023-04-25T11:16:40.833Z,11.1129
2023-04-25T11:17:42.299Z,10.2628
2023-04-25T11:18:43.571Z,9.4172
2023-04-25T11:19:44.977Z,9.6926
2023-04-25T11:20:46.378Z,10.2141
2023-04-25T11:21:47.654Z,10.2263
2023-04-25T11:22:50.934Z,9.1555
2023-04-25T11:23:50.118Z,9.7354
2023-04-25T11:24:51.529Z,9.5679
2023-04-25T11:25:52.770Z,10.5361
2023-04-25T11:26:54.006Z,10.4117
2023-04-25T11:27:55.336Z,10.6124
2023-04-25T11:28:56.591Z,10.8257
2023-04-25T11:29:57.833Z,10.0298
2023-04-25T11:30:59.091Z,9.8168
2023-04-25T11:32:00.394Z,9.7843
2023-04-25T11:33:01.679Z,9.1668
2023-04-25T11:34:02.955Z,9.6001
2023-04-25T11:35:04.360Z,9.8338
2023-04-25T11:36:05.564Z,9.1205
2023-04-25T11:37:06.849Z,8.5681
2023-04-25T11:38:08.140Z,8.7478
2023-04-25T11:39:09.403Z,9.0212
2023-04-25T11:40:10.711Z,10.2032
2023-04-25T11:41:11.970Z,9.1557
2023-04-25T11:42:13.863Z,9.2270
2023-04-25T11:43:15.469Z,9.5163
2023-04-25T11:44:16.719Z,9.8888
2023-04-25T11:45:17.971Z,9.9455
2023-04-25T11:46:19.294Z,10.7150
2023-04-25T11:47:20.541Z,10.5375
2023-04-25T11:48:25.818Z,10.5600
2023-04-25T11:49:24.027Z,10.5357
2023-04-25T11:50:25.323Z,11.0358
2023-04-25T11:51:26.580Z,12.2270
2023-04-25T11:52:27.891Z,12.5435
2023-04-25T11:53:29.153Z,11.5153
2023-04-25T11:54:30.420Z,10.6322
2023-04-25T11:55:31.760Z,10.0066
2023-04-25T11:56:33.001Z,10.0512
2023-04-25T11:57:34.258Z,10.8438
2023-04-25T11:58:35.851Z,11.7415
2023-04-25T11:59:37.276Z,11.0694
2023-04-25T12:00:38.616Z,11.3857
2023-04-25T12:01:39.892Z,11.5005
2023-04-25T12:02:41.329Z,11.0728
2023-04-25T12:03:42.755Z,11.0445
2023-04-25T12:04:44.399Z,10.3121
2023-04-25T12:05:46.121Z,10.0927
2023-04-25T12:06:47.455Z,10.1930
2023-04-25T12:07:48.739Z,10.5397
2023-04-25T12:08:50.255Z,11.0277
2023-04-25T12:09:51.619Z,12.0312
2023-04-25T12:10:52.897Z,13.1147
2023-04-25T12:11:54.200Z,11.8887
2023-04-25T12:12:55.548Z,11.6928
2023-04-25T12:13:56.765Z,11.8293
2023-04-25T12:14:58.032Z,11.5756
2023-04-25T12:15:59.362Z,10.4740
2023-04-25T12:17:00.627Z,10.0890
2023-04-25T12:18:01.934Z,10.2090
2023-04-25T12:19:03.190Z,10.1701
2023-04-25T12:20:04.454Z,10.0991
2023-04-25T12:21:05.759Z,9.1741
2023-04-25T12:22:07.004Z,8.7925
2023-04-25T12:23:08.239Z,8.8965
2023-04-25T12:24:09.479Z,8.9989
2023-04-25T12:25:10.689Z,8.3788
2023-04-25T12:26:13.310Z,8.7317
2023-04-25T12:27:14.548Z,8.6183
2023-04-25T12:28:15.778Z,8.5825
2023-04-25T12:29:17.099Z,8.1944
2023-04-25T12:30:18.337Z,7.7439
2023-04-25T12:31:19.638Z,7.6561
2023-04-25T12:32:20.901Z,7.5959
2023-04-25T12:33:22.173Z,7.5714
2023-04-25T12:34:25.038Z,8.2600
2023-04-25T12:35:26.325Z,8.8657
2023-04-25T12:36:27.584Z,8.3434
2023-04-25T12:37:28.868Z,8.0247
2023-04-25T12:38:30.135Z,9.2501
2023-04-25T12:39:31.398Z,9.6461
2023-04-25T12:40:32.638Z,10.2967
2023-04-25T12:41:33.953Z,9.8109
2023-04-25T12:42:35.228Z,10.4338
2023-04-25T12:43:36.502Z,10.7741
2023-04-25T12:44:37.787Z,10.4963
2023-04-25T12:45:39.021Z,9.8581
2023-04-25T12:46:40.330Z,9.5542
2023-04-25T12:47:41.632Z,10.2931
2023-04-25T12:48:42.873Z,11.4562
2023-04-25T12:49:44.106Z,10.2365
2023-04-25T12:50:45.364Z,9.7213